Riverdale, MD (20737)

5:22 PM EDT on September 02, 2014 (GMT -0400)
Riverdale Park | Change Station
CLOSE
Current Station
Personal Weather Station
Location: Riverdale, MD
Elevation: 52 ft
Nearby Weather Stations

Elev 52 ft 38.96 °N, 76.94 °W | Updated 7 seconds ago

Overcast
Overcast
85.5 °F
Feels Like 92 °F
N
3.0
Wind Variable Wind from NE
Gusts 8.0 mph

Today
High -- | Low -- °F
--% Chance of Precip.
Yesterday
High -- | Low -- °F
Precip. -- in
6:37 AM 7:36 PM
First Quarter, 55% visible
Pressure 29.86 in
Visibility 10.0 miles
Clouds Mostly Cloudy 5500 ft
Mostly Cloudy 7000 ft
Overcast 8000 ft
Heat Index 92 °F
Dew Point 72 °F
Humidity 65%
Rainfall 0.00 in
Snow Depth Not available.
UV 1 out of 12
Pollen 9.80 out of 12
Air Quality Not available.
Flu Activity Not available.
METAR KCGS 022105Z AUTO 01006G15KT 10SM BKN055 BKN070 OVC080 30/21 A2986 RMK AO1

More Conditions Fewer Conditions

Pressure 29.86 in
Visibility 10.0 miles
Clouds Mostly Cloudy 5500 ft
Mostly Cloudy 7000 ft
Overcast 8000 ft
Heat Index 92 °F
Dew Point 72 °F
Humidity 65%
Rainfall 0.00 in
Snow Depth Not available.
UV 1 out of 12
Pollen 9.80 out of 12
Air Quality Not available.
Flu Activity Not available.
METAR KCGS 022105Z AUTO 01006G15KT 10SM BKN055 BKN070 OVC080 30/21 A2986 RMK AO1

More Conditions Fewer Conditions

Nowcast | as of 5:07 PM EDT on September 2, 2014

At 503 PM EDT...Doppler radar detected a thunderstorm. This thunderstorm was located near Laurel...moving east at 30 mph. Locations that likely will be impacted include Odenton...Severn... Crofton...BWI Airport...Millersville and South Gate. Occasional cloud to ground lightning is occurring. Move indoors until the storm has passed. Gusty winds of 30 to 40 mph can be expected. Heavy downpours could reduce visibilities and cause water to pond on roadways. Lat...Lon 3917 7661 3898 7663 3902 7690 3920 7686 time...Mot...loc 2107z 280deg 26kt 3909 7676

×

10-Day Weather Forecast

Almanac

Astronomy

Sep. 02, 2014 Rise Set
Actual Time 6:37 AM EDT 7:36 PM EDT
Civil Twilight 6:10 AM EDT 8:03 PM EDT
Nautical Twilight 5:37 AM EDT 8:36 PM EDT
Astronomical Twilight 5:03 AM EDT 9:09 PM EDT
Moon 2:15 PM EDT No Moon Set
Length of Visible Light 13h 53m
Length of Day
12h 59m
Tomorrow will be 2m 27s shorter.
First Quarter, 55% of the Moon is Illuminated
Today
First Quarter
Sep 8
Full
Sep 15
Last Quarter
Sep 24
New
Oct 1
First Quarter

Today's Extremes

State Highs State Lows

Community

WunderPhotos

Upload Photos

1,749,769 photos uploaded!

Nearby

Snow Depth

Station Depth Elevation
No new snow has been reported.

Earthquake Activity

City Distance Mag. Time & Date
No recent earthquake activity has been reported nearby.
Minimum magnitude displayed is 2.5.

Coastal Water Temperatures

Place Temperature
Washington, DC 82.0 °F
Baltimore, MD 82.9 °F
Solomons Island, MD 82.0 °F

Nearby Weather Stations